createdAt,value
2019-01-02T00:00:02.300Z,35.92
2019-01-02T00:01:12.523Z,35.82
2019-01-02T00:02:21.731Z,35.82
2019-01-02T00:03:31.321Z,35.92
2019-01-02T00:04:41.261Z,35.82
2019-01-02T00:05:51.868Z,36.11
2019-01-02T00:07:01.344Z,35.72
2019-01-02T00:08:11.115Z,35.92
2019-01-02T00:09:20.678Z,36.11
2019-01-02T00:10:31.210Z,36.01
2019-01-02T00:11:40.660Z,36.01
2019-01-02T00:12:49.969Z,35.82
2019-01-02T00:14:00.459Z,35.82
2019-01-02T00:15:10.185Z,35.72
2019-01-02T00:16:19.390Z,35.92
2019-01-02T00:17:28.758Z,35.82
2019-01-02T00:18:39.465Z,35.82
2019-01-02T00:19:48.940Z,35.63
2019-01-02T00:20:58.201Z,35.82
2019-01-02T00:22:09.002Z,35.53
2019-01-02T00:23:18.463Z,35.72
2019-01-02T00:24:27.698Z,35.72
2019-01-02T00:25:37.230Z,35.63
2019-01-02T00:26:48.530Z,35.63
2019-01-02T00:27:58.234Z,35.63
2019-01-02T00:29:07.774Z,35.53
2019-01-02T00:30:17.611Z,35.44
2019-01-02T00:31:28.570Z,35.44
2019-01-02T00:32:38.300Z,35.63
2019-01-02T00:33:47.829Z,35.63
2019-01-02T00:34:58.592Z,35.53
2019-01-02T00:36:08.652Z,35.52
2019-01-02T00:37:18.369Z,35.34
2019-01-02T00:38:27.967Z,35.34
2019-01-02T00:39:38.804Z,35.22
2019-01-02T00:40:48.025Z,35.34
2019-01-02T00:41:57.548Z,35.13
2019-01-02T00:43:07.959Z,35.24
2019-01-02T00:44:18.280Z,35.13
2019-01-02T00:45:27.744Z,35.22
2019-01-02T00:46:37.071Z,35.22
2019-01-02T00:47:47.353Z,35.32
2019-01-02T00:48:56.337Z,35.03
2019-01-02T00:50:06.075Z,35.22
2019-01-02T00:51:16.118Z,35.13
2019-01-02T00:52:26.461Z,35.22
2019-01-02T00:53:36.189Z,35.22
2019-01-02T00:54:46.062Z,35.22
2019-01-02T00:55:56.211Z,35.13
2019-01-02T00:57:07.066Z,34.94
2019-01-02T00:58:17.204Z,35.13
2019-01-02T00:59:27.746Z,35.03
2019-01-02T01:00:37.221Z,35.03
2019-01-02T01:01:46.545Z,35.13
2019-01-02T01:02:56.879Z,35.22
2019-01-02T01:04:05.872Z,35.13
2019-01-02T01:05:15.699Z,35.13
2019-01-02T01:06:25.593Z,35.03
2019-01-02T01:07:36.144Z,35.13
2019-01-02T01:08:45.622Z,35.13
2019-01-02T01:09:55.699Z,35.13
2019-01-02T01:11:05.955Z,35.32
2019-01-02T01:12:15.198Z,35.13
2019-01-02T01:13:24.742Z,35.13
2019-01-02T01:14:35.999Z,35.22
2019-01-02T01:15:45.979Z,34.84
2019-01-02T01:16:55.234Z,34.84
2019-01-02T01:18:05.166Z,34.74
2019-01-02T01:19:15.550Z,34.74
2019-01-02T01:20:24.503Z,34.74
2019-01-02T01:21:34.001Z,34.64
2019-01-02T01:22:44.584Z,34.64
2019-01-02T01:23:54.097Z,34.64
2019-01-02T01:25:03.559Z,34.45
2019-01-02T01:26:13.553Z,34.64
2019-01-02T01:27:24.009Z,34.55
2019-01-02T01:28:34.613Z,34.64
2019-01-02T01:29:43.825Z,34.55
2019-01-02T01:30:53.867Z,34.45
2019-01-02T01:32:04.243Z,34.55
2019-01-02T01:33:14.730Z,34.36
2019-01-02T01:34:24.198Z,34.45
2019-01-02T01:35:33.935Z,34.45
2019-01-02T01:36:43.997Z,34.55
2019-01-02T01:37:54.438Z,34.55
2019-01-02T01:39:03.664Z,34.45
2019-01-02T01:40:13.136Z,34.55
2019-01-02T01:41:22.643Z,34.26
2019-01-02T01:42:33.623Z,34.26
2019-01-02T01:43:43.103Z,34.36
2019-01-02T01:44:53.105Z,34.64
2019-01-02T01:46:03.182Z,34.55
2019-01-02T01:47:14.208Z,34.55
2019-01-02T01:48:23.411Z,34.26
2019-01-02T01:49:32.874Z,34.45
2019-01-02T01:50:42.420Z,34.26
2019-01-02T01:51:52.924Z,34.45
2019-01-02T01:53:02.656Z,34.36
2019-01-02T01:54:11.875Z,34.55
2019-01-02T01:55:21.640Z,34.44
2019-01-02T01:56:32.089Z,34.44
2019-01-02T01:57:41.973Z,34.45
2019-01-02T01:58:51.717Z,34.55
2019-01-02T02:00:01.479Z,34.45
2019-01-02T02:01:11.762Z,34.24
2019-01-02T02:02:21.773Z,34.24
2019-01-02T02:03:30.731Z,34.26
2019-01-02T02:04:40.539Z,33.95
2019-01-02T02:05:50.595Z,34.24
2019-01-02T02:07:00.440Z,34.14
2019-01-02T02:08:10.158Z,34.26
2019-01-02T02:09:20.038Z,34.24
2019-01-02T02:10:29.734Z,34.24
2019-01-02T02:11:40.040Z,34.24
2019-01-02T02:12:49.512Z,34.34
2019-01-02T02:13:59.334Z,34.24
2019-01-02T02:15:08.873Z,34.53
2019-01-02T02:16:20.126Z,34.24
2019-01-02T02:17:29.361Z,34.34
2019-01-02T02:18:39.158Z,34.44
2019-01-02T02:19:48.390Z,34.05
2019-01-02T02:20:58.834Z,33.95
2019-01-02T02:22:08.289Z,34.05
2019-01-02T02:23:17.741Z,33.95
2019-01-02T02:24:27.771Z,34.05
2019-01-02T02:25:38.695Z,34.05
2019-01-02T02:26:48.152Z,34.05
2019-01-02T02:27:57.755Z,34.05
2019-01-02T02:29:07.212Z,34.14
2019-01-02T02:30:17.734Z,34.14
2019-01-02T02:31:27.744Z,34.14
2019-01-02T02:32:38.232Z,34.05
2019-01-02T02:33:49.454Z,34.05
2019-01-02T02:35:00.008Z,34.05
2019-01-02T02:36:10.018Z,34.05
2019-01-02T02:37:20.677Z,34.05
2019-01-02T02:38:30.505Z,34.14
2019-01-02T02:39:41.379Z,34.05
2019-01-02T02:40:51.564Z,34.14
2019-01-02T02:42:00.929Z,34.05
2019-01-02T02:43:13.502Z,33.86
2019-01-02T02:44:23.324Z,33.86
2019-01-02T02:45:33.821Z,33.86
2019-01-02T02:46:44.838Z,33.95
2019-01-02T02:47:54.157Z,33.66
2019-01-02T02:49:05.557Z,33.66
2019-01-02T02:50:15.532Z,33.76
2019-01-02T02:51:26.095Z,33.66
2019-01-02T02:52:36.845Z,33.37
2019-01-02T02:53:45.917Z,33.66
2019-01-02T02:54:56.763Z,33.76
2019-01-02T02:56:06.257Z,33.66
2019-01-02T02:57:16.978Z,33.76
2019-01-02T02:58:26.933Z,33.76
2019-01-02T02:59:37.143Z,33.86
2019-01-02T03:00:47.268Z,33.37
2019-01-02T03:01:58.239Z,33.28
2019-01-02T03:03:08.976Z,33.76
2019-01-02T03:04:18.473Z,33.57
2019-01-02T03:05:28.866Z,33.76
2019-01-02T03:06:38.158Z,33.76
2019-01-02T03:07:54.397Z,33.76
2019-01-02T03:09:05.564Z,33.76
2019-01-02T03:10:15.153Z,33.66
2019-01-02T03:11:26.214Z,33.76
2019-01-02T03:12:36.030Z,33.37
2019-01-02T03:13:46.211Z,33.28
2019-01-02T03:14:57.279Z,33.28
2019-01-02T03:16:07.281Z,33.57
2019-01-02T03:17:17.654Z,33.47
2019-01-02T03:18:28.280Z,33.47
2019-01-02T03:19:39.111Z,33.47
2019-01-02T03:20:50.037Z,33.36
2019-01-02T03:21:59.570Z,33.47
2019-01-02T03:23:09.799Z,33.26
2019-01-02T03:24:20.881Z,33.26
2019-01-02T03:25:30.675Z,33.26
2019-01-02T03:26:41.594Z,32.97
2019-01-02T03:27:51.117Z,33.17
2019-01-02T03:29:02.204Z,33.26
2019-01-02T03:30:12.517Z,33.26
2019-01-02T03:31:23.805Z,33.28
2019-01-02T03:32:35.280Z,33.26
2019-01-02T03:33:45.860Z,33.26
2019-01-02T03:34:54.792Z,33.26
2019-01-02T03:36:04.808Z,33.26
2019-01-02T03:37:14.497Z,33.26
2019-01-02T03:38:24.211Z,33.26
2019-01-02T03:39:33.644Z,33.17
2019-01-02T03:40:43.100Z,33.45
2019-01-02T03:41:53.046Z,33.07
2019-01-02T03:43:02.468Z,33.36
2019-01-02T03:44:11.640Z,33.26
2019-01-02T03:45:21.087Z,33.17
2019-01-02T03:46:30.287Z,32.97
2019-01-02T03:47:39.741Z,32.97
2019-01-02T03:48:49.194Z,33.17
2019-01-02T03:49:58.144Z,33.17
2019-01-02T03:51:07.610Z,33.07
2019-01-02T03:52:17.051Z,32.97
2019-01-02T03:53:25.981Z,33.17
2019-01-02T03:54:35.189Z,33.26
2019-01-02T03:55:44.637Z,33.17
2019-01-02T03:56:53.571Z,32.97
2019-01-02T03:58:02.774Z,33.17
2019-01-02T03:59:12.230Z,33.17
2019-01-02T04:00:21.898Z,33.07
2019-01-02T04:01:30.844Z,33.26
2019-01-02T04:02:40.285Z,33.26
2019-01-02T04:03:49.218Z,33.17
2019-01-02T04:04:58.400Z,32.97
2019-01-02T04:06:07.827Z,33.26
2019-01-02T04:07:17.512Z,33.17
2019-01-02T04:08:26.705Z,32.97
2019-01-02T04:09:36.145Z,32.97
2019-01-02T04:10:45.322Z,32.87
2019-01-02T04:11:54.755Z,33.07
2019-01-02T04:13:04.179Z,32.87
2019-01-02T04:14:13.619Z,32.97
2019-01-02T04:15:22.320Z,32.78
2019-01-02T04:16:31.549Z,32.78
2019-01-02T04:17:40.978Z,33.07
2019-01-02T04:18:50.428Z,32.78
2019-01-02T04:19:59.872Z,33.07
2019-01-02T04:21:08.607Z,33.07
2019-01-02T04:22:18.040Z,32.68
2019-01-02T04:23:26.719Z,32.78
2019-01-02T04:24:35.911Z,32.87
2019-01-02T04:25:45.348Z,32.87
2019-01-02T04:26:54.767Z,32.97
2019-01-02T04:28:04.190Z,32.97
2019-01-02T04:29:13.364Z,33.17
2019-01-02T04:30:22.564Z,32.39
2019-01-02T04:31:32.256Z,32.49
2019-01-02T04:32:41.998Z,32.78
2019-01-02T04:33:51.216Z,32.59
2019-01-02T04:35:00.418Z,32.68
2019-01-02T04:36:09.600Z,32.97
2019-01-02T04:37:19.024Z,32.97
2019-01-02T04:38:28.703Z,32.59
2019-01-02T04:39:38.148Z,32.97
2019-01-02T04:40:47.333Z,32.68
2019-01-02T04:41:57.028Z,32.59
2019-01-02T04:43:06.225Z,32.68
2019-01-02T04:44:15.407Z,32.49
2019-01-02T04:45:24.600Z,32.68
2019-01-02T04:46:33.771Z,32.49
2019-01-02T04:47:42.706Z,32.59
2019-01-02T04:48:52.385Z,32.59
2019-01-02T04:50:02.078Z,32.59
2019-01-02T04:51:11.031Z,32.68
2019-01-02T04:52:20.485Z,32.59
2019-01-02T04:53:29.915Z,32.68
2019-01-02T04:54:39.097Z,32.39
2019-01-02T04:55:48.275Z,32.39
2019-01-02T04:56:57.706Z,32.39
2019-01-02T04:58:06.638Z,32.39
2019-01-02T04:59:16.071Z,32.49
2019-01-02T05:00:25.497Z,32.67
2019-01-02T05:01:34.944Z,32.39
2019-01-02T05:02:44.688Z,32.49
2019-01-02T05:03:53.879Z,32.49
2019-01-02T05:05:03.311Z,32.49
2019-01-02T05:06:12.509Z,32.38
2019-01-02T05:07:22.435Z,32.59
2019-01-02T05:08:31.379Z,32.59
2019-01-02T05:09:40.599Z,32.38
2019-01-02T05:10:50.062Z,32.49
2019-01-02T05:11:59.248Z,32.18
2019-01-02T05:13:08.670Z,32.18
2019-01-02T05:14:18.365Z,32.28
2019-01-02T05:15:27.795Z,32.28
2019-01-02T05:16:37.244Z,32.2
2019-01-02T05:17:46.418Z,32.28
2019-01-02T05:18:55.856Z,32.39
2019-01-02T05:20:05.042Z,32.39
2019-01-02T05:21:13.972Z,32.29
2019-01-02T05:22:23.922Z,32.39
2019-01-02T05:23:33.641Z,32.09
2019-01-02T05:24:42.576Z,32.18
2019-01-02T05:25:51.519Z,32.18
2019-01-02T05:27:01.244Z,32.18
2019-01-02T05:28:10.678Z,32.28
2019-01-02T05:29:19.608Z,32.18
2019-01-02T05:30:28.533Z,32.28
2019-01-02T05:31:37.731Z,32.09
2019-01-02T05:32:46.682Z,32.39
2019-01-02T05:33:55.851Z,31.99
2019-01-02T05:35:05.051Z,32.09
2019-01-02T05:36:14.240Z,32.09
2019-01-02T05:37:23.419Z,32.09
2019-01-02T05:38:32.619Z,32.09
2019-01-02T05:39:42.072Z,32.09
2019-01-02T05:40:51.767Z,32.09
2019-01-02T05:42:01.225Z,32.09
2019-01-02T05:43:10.663Z,32.18
2019-01-02T05:44:20.090Z,31.99
2019-01-02T05:45:29.540Z,31.99
2019-01-02T05:46:38.714Z,32.09
2019-01-02T05:47:48.152Z,31.99
2019-01-02T05:48:57.355Z,31.99
2019-01-02T05:50:07.056Z,31.9
2019-01-02T05:51:16.508Z,32.09
2019-01-02T05:52:26.201Z,31.9
2019-01-02T05:53:35.890Z,31.9
2019-01-02T05:54:45.081Z,31.8
2019-01-02T05:55:54.274Z,31.99
2019-01-02T05:57:03.708Z,31.99
2019-01-02T05:58:12.676Z,31.9
2019-01-02T05:59:21.872Z,31.9
2019-01-02T06:00:31.568Z,31.99
2019-01-02T06:01:46.882Z,31.9
2019-01-02T06:02:56.576Z,31.9
2019-01-02T06:04:05.778Z,31.99
2019-01-02T06:05:14.981Z,31.99
2019-01-02T06:06:24.671Z,31.99
2019-01-02T06:07:34.101Z,31.99
2019-01-02T06:08:43.779Z,32.09
2019-01-02T06:09:53.212Z,32.09
2019-01-02T06:11:02.964Z,31.9
2019-01-02T06:12:12.187Z,31.9
2019-01-02T06:13:21.855Z,31.9
2019-01-02T06:14:31.060Z,31.8
2019-01-02T06:15:41.345Z,31.8
2019-01-02T06:16:50.525Z,31.99
2019-01-02T06:17:59.212Z,31.9
2019-01-02T06:19:08.657Z,31.9
2019-01-02T06:20:17.831Z,31.9
2019-01-02T06:21:27.008Z,31.9
2019-01-02T06:22:36.698Z,31.9
2019-01-02T06:23:46.408Z,31.7
2019-01-02T06:24:55.845Z,31.8
2019-01-02T06:26:05.563Z,31.8
2019-01-02T06:27:14.989Z,31.8
2019-01-02T06:28:24.444Z,31.7
2019-01-02T06:29:33.869Z,31.8
2019-01-02T06:30:43.062Z,31.8
2019-01-02T06:31:52.496Z,31.8
2019-01-02T06:33:02.196Z,31.7
2019-01-02T06:34:11.643Z,31.7
2019-01-02T06:35:20.576Z,31.6
2019-01-02T06:36:29.733Z,31.7
2019-01-02T06:37:38.674Z,31.6
2019-01-02T06:38:47.866Z,31.7
2019-01-02T06:39:57.062Z,31.8
2019-01-02T06:41:06.261Z,31.6
2019-01-02T06:42:15.938Z,31.6
2019-01-02T06:43:25.369Z,31.6
2019-01-02T06:44:34.545Z,31.7
2019-01-02T06:45:44.231Z,31.7
2019-01-02T06:46:53.170Z,31.7
2019-01-02T06:48:02.846Z,31.6
2019-01-02T06:49:12.534Z,31.7
2019-01-02T06:50:21.991Z,31.7
2019-01-02T06:51:31.677Z,31.51
2019-01-02T06:52:40.895Z,31.6
2019-01-02T06:53:49.838Z,31.51
2019-01-02T06:54:59.265Z,31.6
2019-01-02T06:56:08.460Z,31.7
2019-01-02T06:57:17.407Z,31.7
2019-01-02T06:58:26.572Z,31.51
2019-01-02T06:59:35.503Z,31.6
2019-01-02T07:00:44.958Z,31.6
2019-01-02T07:01:53.947Z,31.6
2019-01-02T07:03:03.379Z,31.51
2019-01-02T07:04:12.573Z,31.6
2019-01-02T07:05:22.500Z,31.51
2019-01-02T07:06:31.941Z,31.6
2019-01-02T07:07:41.382Z,31.6
2019-01-02T07:08:50.796Z,31.6
2019-01-02T07:10:00.510Z,31.6
2019-01-02T07:11:09.686Z,31.7
2019-01-02T07:12:18.864Z,31.6
2019-01-02T07:13:28.551Z,31.7
2019-01-02T07:14:37.989Z,31.7
2019-01-02T07:15:47.420Z,31.6
2019-01-02T07:16:56.596Z,31.51
2019-01-02T07:18:05.771Z,31.7
2019-01-02T07:19:15.452Z,31.6
2019-01-02T07:20:24.408Z,31.51
2019-01-02T07:21:33.593Z,31.6
2019-01-02T07:22:42.525Z,31.51
2019-01-02T07:23:51.699Z,31.51
2019-01-02T07:25:01.124Z,31.6
2019-01-02T07:26:10.824Z,31.41
2019-01-02T07:27:20.010Z,31.6
2019-01-02T07:28:29.487Z,31.41
2019-01-02T07:29:38.918Z,31.6
2019-01-02T07:30:48.637Z,31.6
2019-01-02T07:31:57.759Z,31.51
2019-01-02T07:33:06.931Z,31.51
2019-01-02T07:34:15.866Z,31.32
2019-01-02T07:35:25.054Z,31.51
2019-01-02T07:36:34.500Z,31.51
2019-01-02T07:37:43.680Z,31.59
2019-01-02T07:38:53.117Z,31.51
2019-01-02T07:40:02.074Z,31.51
2019-01-02T07:41:11.765Z,31.6
2019-01-02T07:42:20.715Z,31.49
2019-01-02T07:43:29.899Z,31.49
2019-01-02T07:44:39.136Z,31.51
2019-01-02T07:45:48.115Z,31.41
2019-01-02T07:46:57.059Z,31.41
2019-01-02T07:48:06.985Z,31.41
2019-01-02T07:49:16.670Z,31.49
2019-01-02T07:50:25.873Z,31.4
2019-01-02T07:51:34.831Z,31.4
2019-01-02T07:52:44.013Z,31.41
2019-01-02T07:53:52.945Z,31.51
2019-01-02T07:55:03.437Z,31.51
2019-01-02T07:56:12.911Z,31.41
2019-01-02T07:57:22.602Z,31.4
2019-01-02T07:58:32.022Z,31.4
2019-01-02T07:59:41.211Z,31.49
2019-01-02T08:00:50.397Z,31.3
2019-01-02T08:01:59.599Z,31.4
2019-01-02T08:03:08.792Z,31.4
2019-01-02T08:04:17.495Z,31.32
2019-01-02T08:05:26.951Z,31.4
2019-01-02T08:06:36.141Z,31.41
2019-01-02T08:07:45.582Z,31.4
2019-01-02T08:08:54.754Z,31.3
2019-01-02T08:10:04.472Z,31.4
2019-01-02T08:11:14.191Z,31.3
2019-01-02T08:12:23.364Z,31.49
2019-01-02T08:13:32.546Z,31.4
2019-01-02T08:14:43.786Z,31.4
2019-01-02T08:15:52.955Z,31.3
2019-01-02T08:17:02.630Z,31.3
2019-01-02T08:18:12.065Z,31.3
2019-01-02T08:19:21.491Z,31.21
2019-01-02T08:20:31.174Z,31.3
2019-01-02T08:21:40.375Z,31.21
2019-01-02T08:22:49.567Z,31.3
2019-01-02T08:23:58.765Z,31.11
2019-01-02T08:25:08.201Z,31.21
2019-01-02T08:26:17.634Z,31.21
2019-01-02T08:27:26.587Z,31.21
2019-01-02T08:28:36.259Z,31.21
2019-01-02T08:29:45.206Z,31.21
2019-01-02T08:30:55.150Z,31.21
2019-01-02T08:32:04.335Z,31.21
2019-01-02T08:33:13.802Z,31.21
2019-01-02T08:34:23.245Z,31.3
2019-01-02T08:35:32.701Z,31.3
2019-01-02T08:36:42.397Z,31.21
2019-01-02T08:37:51.576Z,31.21
2019-01-02T08:39:00.584Z,31.3
2019-01-02T08:40:10.266Z,31.21
2019-01-02T08:41:19.695Z,31.3
2019-01-02T08:42:29.386Z,31.3
2019-01-02T08:43:38.318Z,31.21
2019-01-02T08:44:47.996Z,31.11
2019-01-02T08:45:57.176Z,31.11
2019-01-02T08:47:06.094Z,31.3
2019-01-02T08:48:15.287Z,31.21
2019-01-02T08:49:24.509Z,31.21
2019-01-02T08:50:33.939Z,31.21
2019-01-02T08:51:42.857Z,31.21
2019-01-02T08:52:52.539Z,31.21
2019-01-02T08:54:01.967Z,31.21
2019-01-02T08:55:11.671Z,31.21
2019-01-02T08:56:21.152Z,31.21
2019-01-02T08:57:30.834Z,31.11
2019-01-02T08:58:40.023Z,31.21
2019-01-02T08:59:49.703Z,31.11
2019-01-02T09:00:59.134Z,31.11
2019-01-02T09:02:08.556Z,31.11
2019-01-02T09:03:18.223Z,31.21
2019-01-02T09:04:27.151Z,31.11
2019-01-02T09:05:36.625Z,31.01
2019-01-02T09:06:46.304Z,31.11
2019-01-02T09:07:55.233Z,31.21
2019-01-02T09:09:04.435Z,31.01
2019-01-02T09:10:15.316Z,31.11
2019-01-02T09:11:24.516Z,31.01
2019-01-02T09:12:33.940Z,31.01
2019-01-02T09:13:42.876Z,31.11
2019-01-02T09:14:52.307Z,30.91
2019-01-02T09:16:01.490Z,31.11
2019-01-02T09:17:10.929Z,31.11
2019-01-02T09:18:19.870Z,31.01
2019-01-02T09:19:28.842Z,31.21
2019-01-02T09:20:38.330Z,31.11
2019-01-02T09:21:47.800Z,31.01
2019-01-02T09:22:56.751Z,31.11
2019-01-02T09:24:06.205Z,31.11
2019-01-02T09:25:15.661Z,31.11
2019-01-02T09:26:25.090Z,31.11
2019-01-02T09:27:34.518Z,30.91
2019-01-02T09:28:43.444Z,31.11
2019-01-02T09:29:53.129Z,31.01
2019-01-02T09:31:02.080Z,30.91
2019-01-02T09:32:11.022Z,31.11
2019-01-02T09:33:20.203Z,30.91
2019-01-02T09:34:29.620Z,31.01
2019-01-02T09:35:38.787Z,30.91
2019-01-02T09:36:48.073Z,30.91
2019-01-02T09:37:57.033Z,30.91
2019-01-02T09:39:06.462Z,30.91
2019-01-02T09:40:15.628Z,30.91
2019-01-02T09:41:25.304Z,31.01
2019-01-02T09:42:35.199Z,30.91
2019-01-02T09:43:44.140Z,31.11
2019-01-02T09:44:53.845Z,31.01
2019-01-02T09:46:03.069Z,31.01
2019-01-02T09:47:13.014Z,31.11
2019-01-02T09:48:22.319Z,31.01
2019-01-02T09:49:31.998Z,31.01
2019-01-02T09:50:41.186Z,31.11
2019-01-02T09:51:50.378Z,31.01
2019-01-02T09:53:00.087Z,31.01
2019-01-02T09:54:09.294Z,30.82
2019-01-02T09:55:18.476Z,31.01
2019-01-02T09:56:28.440Z,31.01
2019-01-02T09:57:37.640Z,31.01
2019-01-02T09:58:46.808Z,31.01
2019-01-02T09:59:55.996Z,31.01
2019-01-02T10:01:05.693Z,30.91
2019-01-02T10:02:14.891Z,31.01
2019-01-02T10:03:24.085Z,31.11
2019-01-02T10:04:33.768Z,30.91
2019-01-02T10:05:42.731Z,30.91
2019-01-02T10:06:52.163Z,30.82
2019-01-02T10:08:01.384Z,30.82
2019-01-02T10:09:11.077Z,30.82
2019-01-02T10:10:21.815Z,30.82
2019-01-02T10:11:31.264Z,30.82
2019-01-02T10:12:40.705Z,30.82
2019-01-02T10:13:49.886Z,31.01
2019-01-02T10:14:59.314Z,30.82
2019-01-02T10:16:08.236Z,30.82
2019-01-02T10:17:17.182Z,30.82
2019-01-02T10:18:26.879Z,30.73
2019-01-02T10:19:36.059Z,30.91
2019-01-02T10:20:46.468Z,30.73
2019-01-02T10:21:55.417Z,30.73
2019-01-02T10:23:04.359Z,30.91
2019-01-02T10:24:14.310Z,30.63
2019-01-02T10:25:23.494Z,30.82
2019-01-02T10:26:32.453Z,30.73
2019-01-02T10:27:41.385Z,30.63
2019-01-02T10:28:50.823Z,30.73
2019-01-02T10:30:00.288Z,30.63
2019-01-02T10:31:09.952Z,30.73
2019-01-02T10:32:19.368Z,30.73
2019-01-02T10:33:28.808Z,30.74
2019-01-02T10:34:38.497Z,30.73
2019-01-02T10:35:47.679Z,30.53
2019-01-02T10:36:56.609Z,30.53
2019-01-02T10:38:06.037Z,30.82
2019-01-02T10:39:15.230Z,30.34
2019-01-02T10:40:24.742Z,30.64
2019-01-02T10:41:33.957Z,30.82
2019-01-02T10:42:43.147Z,30.55
2019-01-02T10:43:52.845Z,30.64
2019-01-02T10:45:02.033Z,30.63
2019-01-02T10:46:11.764Z,30.63
2019-01-02T10:47:20.977Z,30.73
2019-01-02T10:48:30.411Z,30.74
2019-01-02T10:49:40.091Z,30.53
2019-01-02T10:50:49.279Z,30.53
2019-01-02T10:51:58.944Z,30.63
2019-01-02T10:53:08.372Z,30.34
2019-01-02T10:54:17.801Z,30.53
2019-01-02T10:55:26.769Z,30.63
2019-01-02T10:56:36.202Z,30.63
2019-01-02T10:57:45.126Z,30.63
2019-01-02T10:58:54.569Z,30.63
2019-01-02T11:00:04.009Z,30.43
2019-01-02T11:01:13.197Z,30.43
2019-01-02T11:02:22.366Z,30.73
2019-01-02T11:03:32.041Z,30.34
2019-01-02T11:04:41.456Z,30.45
2019-01-02T11:05:51.386Z,30.55
2019-01-02T11:07:00.561Z,30.35
2019-01-02T11:08:13.536Z,30.16
2019-01-02T11:09:23.070Z,29.77
2019-01-02T11:10:32.488Z,30.07
2019-01-02T11:11:41.672Z,29.69
2019-01-02T11:12:50.905Z,29.5
2019-01-02T11:14:00.367Z,29.69
2019-01-02T11:15:09.802Z,29.5
2019-01-02T11:16:18.787Z,29.31
2019-01-02T11:17:28.228Z,29.11
2019-01-02T11:18:37.712Z,29.22
2019-01-02T11:19:46.682Z,29.32
2019-01-02T11:20:56.386Z,28.84
2019-01-02T11:22:05.588Z,29.03
2019-01-02T11:23:15.044Z,29.03
2019-01-02T11:24:24.242Z,28.95
2019-01-02T11:25:33.173Z,28.95
2019-01-02T11:26:42.647Z,28.95
2019-01-02T11:27:52.318Z,28.66
2019-01-02T11:29:01.534Z,28.85
2019-01-02T11:30:10.780Z,28.95
2019-01-02T11:31:20.240Z,28.95
2019-01-02T11:32:29.167Z,28.85
2019-01-02T11:33:38.623Z,28.56
2019-01-02T11:34:48.305Z,28.66
2019-01-02T11:35:58.654Z,28.85
2019-01-02T11:37:08.299Z,28.56
2019-01-02T11:38:17.247Z,28.67
2019-01-02T11:39:26.192Z,28.67
2019-01-02T11:40:35.365Z,28.67
2019-01-02T11:41:44.551Z,28.58
2019-01-02T11:42:53.731Z,28.29
2019-01-02T11:44:03.478Z,28.39
2019-01-02T11:45:13.207Z,28.39
2019-01-02T11:46:22.657Z,28.39
2019-01-02T11:47:32.129Z,28.4
2019-01-02T11:48:41.064Z,28.4
2019-01-02T11:49:49.746Z,28.5
2019-01-02T11:50:59.237Z,28.4
2019-01-02T11:52:09.279Z,28.4
2019-01-02T11:53:19.341Z,28.4
2019-01-02T11:54:29.391Z,28.5
2019-01-02T11:55:38.588Z,28.4
2019-01-02T11:56:47.808Z,28.3
2019-01-02T11:57:57.003Z,28.5
2019-01-02T11:59:05.944Z,28.2
2019-01-02T12:00:15.425Z,28.3
2019-01-02T12:01:24.358Z,28.3
2019-01-02T12:02:36.760Z,28.4
2019-01-02T12:03:45.982Z,28.41
2019-01-02T12:04:55.175Z,28.41
2019-01-02T12:06:04.362Z,28.31
2019-01-02T12:07:13.543Z,28.41
2019-01-02T12:08:22.487Z,28.51
2019-01-02T12:09:31.931Z,28.41
2019-01-02T12:10:40.635Z,28.41
2019-01-02T12:11:50.313Z,28.41
2019-01-02T12:13:00.006Z,28.41
2019-01-02T12:14:09.991Z,28.41
2019-01-02T12:15:19.170Z,28.41
2019-01-02T12:16:28.086Z,28.51
2019-01-02T12:17:37.766Z,28.7
2019-01-02T12:18:46.943Z,28.7
2019-01-02T12:19:56.389Z,28.61
2019-01-02T12:21:05.571Z,28.8
2019-01-02T12:22:15.003Z,28.78
2019-01-02T12:23:25.573Z,28.59
2019-01-02T12:24:34.772Z,28.61
2019-01-02T12:25:44.221Z,28.8
2019-01-02T12:26:53.165Z,28.89
2019-01-02T12:28:02.397Z,28.61
2019-01-02T12:29:11.337Z,28.8
2019-01-02T12:30:20.768Z,28.61
2019-01-02T12:31:30.213Z,28.8
2019-01-02T12:32:39.642Z,28.61
2019-01-02T12:33:49.590Z,28.7
2019-01-02T12:34:58.764Z,28.89
2019-01-02T12:36:07.952Z,28.61
2019-01-02T12:37:17.135Z,28.89
2019-01-02T12:38:26.324Z,28.89
2019-01-02T12:39:35.496Z,28.99
2019-01-02T12:40:44.448Z,28.8
2019-01-02T12:41:53.889Z,28.8
2019-01-02T12:43:02.816Z,28.99
2019-01-02T12:44:12.264Z,28.99
2019-01-02T12:45:21.441Z,28.98
2019-01-02T12:46:30.879Z,28.99
2019-01-02T12:47:40.573Z,29.09
2019-01-02T12:48:49.755Z,29.08
2019-01-02T12:50:00.734Z,29.09
2019-01-02T12:51:10.214Z,29.19
2019-01-02T12:52:19.398Z,29.09
2019-01-02T12:53:28.850Z,28.99
2019-01-02T12:54:37.772Z,29.17
2019-01-02T12:55:46.956Z,29.08
2019-01-02T12:56:56.141Z,29.19
2019-01-02T12:58:05.603Z,29.09
2019-01-02T12:59:15.289Z,29.19
2019-01-02T13:00:23.995Z,29.09
2019-01-02T13:01:33.684Z,29.09
2019-01-02T13:02:43.121Z,29.09
2019-01-02T13:03:52.300Z,29.19
2019-01-02T13:05:01.525Z,29.09
2019-01-02T13:06:10.465Z,28.99
2019-01-02T13:07:19.917Z,28.98
2019-01-02T13:08:29.382Z,28.89
2019-01-02T13:09:38.340Z,28.89
2019-01-02T13:10:47.824Z,29.57
2019-01-02T13:11:56.520Z,28.99
2019-01-02T13:13:05.697Z,28.89
2019-01-02T13:14:16.032Z,29.38
2019-01-02T13:15:25.217Z,29.46
2019-01-02T13:16:34.394Z,29.36
2019-01-02T13:17:43.925Z,29.38
2019-01-02T13:18:53.127Z,29.36
2019-01-02T13:20:02.622Z,29.38
2019-01-02T13:21:11.798Z,29.28
2019-01-02T13:22:21.228Z,29.28
2019-01-02T13:23:30.656Z,29.28
2019-01-02T13:24:40.141Z,29.28
2019-01-02T13:25:49.847Z,29.28
2019-01-02T13:26:59.054Z,29.38
2019-01-02T13:28:08.010Z,29.38
2019-01-02T13:29:17.466Z,29.19
2019-01-02T13:30:26.878Z,29.19
2019-01-02T13:31:36.054Z,29.19
2019-01-02T13:32:45.520Z,29.38
2019-01-02T13:33:54.959Z,29.19
2019-01-02T13:35:03.909Z,29.27
2019-01-02T13:36:14.080Z,29.28
2019-01-02T13:37:23.508Z,29.17
2019-01-02T13:38:33.212Z,29.27
2019-01-02T13:39:42.672Z,29.38
2019-01-02T13:40:52.109Z,29.38
2019-01-02T13:42:01.544Z,29.09
2019-01-02T13:43:11.083Z,29.19
2019-01-02T13:44:20.546Z,29.19
2019-01-02T13:45:30.018Z,29.28
2019-01-02T13:46:39.531Z,29.28
2019-01-02T13:47:48.757Z,29.28
2019-01-02T13:48:57.967Z,29.38
2019-01-02T13:50:07.156Z,29.47
2019-01-02T13:51:16.628Z,29.47
2019-01-02T13:52:25.826Z,29.28
2019-01-02T13:53:35.058Z,29.47
2019-01-02T13:54:44.241Z,29.57
2019-01-02T13:55:54.794Z,29.47
2019-01-02T13:57:04.510Z,29.28
2019-01-02T13:58:13.700Z,29.47
2019-01-02T13:59:22.625Z,29.19
2019-01-02T14:00:31.564Z,29.28
2019-01-02T14:01:40.992Z,29.28
2019-01-02T14:02:50.194Z,29.47
2019-01-02T14:03:59.617Z,29.47
2019-01-02T14:05:08.805Z,29.38
2019-01-02T14:06:18.232Z,29.47
2019-01-02T14:07:27.428Z,29.57
2019-01-02T14:08:36.614Z,29.47
2019-01-02T14:09:46.309Z,29.47
2019-01-02T14:10:55.498Z,29.47
2019-01-02T14:12:04.673Z,29.38
2019-01-02T14:13:13.875Z,29.47
2019-01-02T14:14:23.058Z,29.67
2019-01-02T14:15:32.487Z,29.47
2019-01-02T14:16:41.920Z,29.38
2019-01-02T14:17:51.355Z,29.38
2019-01-02T14:19:00.809Z,29.47
2019-01-02T14:20:10.501Z,29.47
2019-01-02T14:21:19.683Z,29.57
2019-01-02T14:22:29.133Z,29.38
2019-01-02T14:23:38.329Z,29.38
2019-01-02T14:24:47.778Z,29.47
2019-01-02T14:25:56.718Z,29.38
2019-01-02T14:27:05.906Z,29.67
2019-01-02T14:28:15.085Z,29.28
2019-01-02T14:29:24.771Z,29.28
2019-01-02T14:30:33.973Z,29.28
2019-01-02T14:31:43.164Z,29.28
2019-01-02T14:32:52.594Z,29.47
2019-01-02T14:34:02.027Z,29.77
2019-01-02T14:35:11.507Z,29.77
2019-01-02T14:36:27.363Z,29.28
2019-01-02T14:37:36.552Z,29.38
2019-01-02T14:38:45.752Z,29.77
2019-01-02T14:39:55.441Z,29.67
2019-01-02T14:41:04.892Z,29.96
2019-01-02T14:42:14.337Z,29.67
2019-01-02T14:43:23.517Z,29.57
2019-01-02T14:44:32.709Z,29.67
2019-01-02T14:45:41.647Z,29.77
2019-01-02T14:46:53.037Z,29.77
2019-01-02T14:48:02.243Z,29.77
2019-01-02T14:49:11.695Z,29.57
2019-01-02T14:50:20.891Z,29.77
2019-01-02T14:51:30.547Z,29.57
2019-01-02T14:52:45.742Z,29.57
2019-01-02T14:53:54.941Z,29.57
2019-01-02T14:55:04.640Z,29.57
2019-01-02T14:56:13.838Z,29.57
2019-01-02T14:57:23.537Z,29.47
2019-01-02T14:58:32.986Z,29.57
2019-01-02T14:59:41.930Z,29.38